Time;durP1;ratioP1;P1;durP2;ratioP2;P2;SDS_P1;SDS_P2;PMS_P1;PMS_P2;Temp;Humidity;BMP_temperature;BMP_pressure;BME280_temperature;BME280_humidity;BME280_pressure;Samples;Min_cycle;Max_cycle;Signal;HPM_P1;HPM_P2
2022/05/16 00:00:14;;;;;;;40.38;29.13;;;;;;;;;;5051247;28;19982;-75
2022/05/16 00:02:41;;;;;;;41.38;28.92;;;;;;;;;;5050101;28;20052;-75
2022/05/16 00:05:07;;;;;;;29.20;23.67;;;;;;;;;;5051001;28;20547;-75
2022/05/16 00:07:34;;;;;;;33.47;25.17;;;;;;;;;;5051017;28;20128;-75
2022/05/16 00:10:00;;;;;;;33.25;24.15;;;;;;;;;;5051034;28;20106;-75
2022/05/16 00:12:27;;;;;;;39.53;27.90;;;;;;;;;;5050828;28;20080;-75
2022/05/16 00:14:54;;;;;;;37.63;27.40;;;;;;;;;;5050885;28;20497;-75
2022/05/16 00:17:20;;;;;;;30.17;23.90;;;;;;;;;;5050806;28;20516;-75
2022/05/16 00:19:47;;;;;;;37.38;28.45;;;;;;;;;;5050878;28;20073;-75
2022/05/16 00:22:13;;;;;;;35.85;27.35;;;;;;;;;;5051146;28;20080;-75
2022/05/16 00:24:41;;;;;;;34.22;26.45;;;;;;;;;;5050873;28;20072;-75
2022/05/16 00:27:08;;;;;;;32.35;25.60;;;;;;;;;;5050896;28;20076;-75
2022/05/16 00:29:35;;;;;;;31.70;24.17;;;;;;;;;;5054584;28;20186;-75
2022/05/16 00:32:02;;;;;;;34.53;22.73;;;;;;;;;;5054339;28;20568;-75
2022/05/16 00:34:28;;;;;;;29.25;21.08;;;;;;;;;;5054241;28;20106;-75
2022/05/16 00:36:54;;;;;;;25.15;18.23;;;;;;;;;;5053244;28;20139;-75
2022/05/16 00:39:21;;;;;;;23.08;17.25;;;;;;;;;;5054002;28;20527;-75
2022/05/16 00:41:49;;;;;;;22.52;17.58;;;;;;;;;;5054317;28;20041;-75
2022/05/16 00:44:16;;;;;;;23.25;15.88;;;;;;;;;;5054274;28;20076;-76
2022/05/16 00:46:42;;;;;;;23.45;15.43;;;;;;;;;;5054352;28;20041;-76
2022/05/16 00:49:15;;;;;;;21.67;15.00;;;;;;;;;;5045003;28;20076;-75
2022/05/16 00:51:45;;;;;;;25.40;17.10;;;;;;;;;;5050426;28;20500;-77
2022/05/16 00:54:17;;;;;;;21.27;16.65;;;;;;;;;;5053962;28;20080;-77
2022/05/16 00:56:44;;;;;;;24.85;17.20;;;;;;;;;;5053753;28;20080;-76
2022/05/16 00:59:10;;;;;;;20.35;14.35;;;;;;;;;;5052548;28;20558;-76
2022/05/16 01:07:08;;;;;;;14.77;12.23;;;;;;;;;;5053998;28;20080;-75
2022/05/16 01:09:34;;;;;;;16.92;11.82;;;;;;;;;;5053612;28;20088;-75
2022/05/16 01:12:01;;;;;;;13.50;10.30;;;;;;;;;;5053731;28;20103;-75
2022/05/16 01:14:41;;;;;;;17.00;9.50;;;;;;;;;;5053842;28;20104;-75
2022/05/16 01:17:08;;;;;;;12.48;9.52;;;;;;;;;;5053771;28;20085;-75
2022/05/16 01:19:34;;;;;;;15.48;9.80;;;;;;;;;;5053383;28;20132;-75
2022/05/16 01:22:05;;;;;;;13.15;9.45;;;;;;;;;;5053551;28;20161;-75
2022/05/16 01:24:32;;;;;;;15.40;9.70;;;;;;;;;;5053342;28;20519;-75
2022/05/16 01:26:58;;;;;;;14.20;9.73;;;;;;;;;;5053591;28;20132;-75
2022/05/16 01:29:24;;;;;;;14.95;9.38;;;;;;;;;;5053712;28;20076;-75
2022/05/16 01:31:51;;;;;;;16.92;8.75;;;;;;;;;;5053517;28;20053;-75
2022/05/16 01:34:18;;;;;;;14.50;9.57;;;;;;;;;;5053213;28;20079;-75
2022/05/16 01:36:44;;;;;;;15.38;9.75;;;;;;;;;;5053258;28;20068;-75
2022/05/16 01:39:10;;;;;;;15.30;9.45;;;;;;;;;;5052262;28;20107;-75
2022/05/16 01:41:37;;;;;;;15.80;9.43;;;;;;;;;;5053023;28;20458;-75
2022/05/16 01:44:04;;;;;;;18.60;10.13;;;;;;;;;;5053294;28;20045;-75
2022/05/16 01:46:33;;;;;;;16.55;9.90;;;;;;;;;;5053248;28;20084;-76
2022/05/16 01:48:59;;;;;;;16.67;10.35;;;;;;;;;;5053134;28;20053;-76
2022/05/16 01:51:26;;;;;;;16.80;9.75;;;;;;;;;;5053084;28;20178;-75
2022/05/16 01:53:52;;;;;;;14.40;9.68;;;;;;;;;;5053010;28;20131;-75
2022/05/16 01:56:19;;;;;;;17.30;11.02;;;;;;;;;;5053042;28;20140;-75
2022/05/16 01:58:45;;;;;;;16.02;10.65;;;;;;;;;;5051673;28;20470;-75
2022/05/16 02:01:14;;;;;;;12.85;10.00;;;;;;;;;;5052861;28;20076;-75
2022/05/16 02:03:42;;;;;;;15.52;10.10;;;;;;;;;;5052808;28;20068;-75
2022/05/16 02:06:08;;;;;;;;;;;;;;;;;;5052913;28;20128;-75
2022/05/16 02:08:35;;;;;;;15.50;9.97;;;;;;;;;;5052570;28;20392;-75
2022/05/16 02:11:02;;;;;;;16.55;10.52;;;;;;;;;;5052396;28;20071;-75
2022/05/16 02:13:29;;;;;;;14.75;10.68;;;;;;;;;;5052685;28;20053;-75
2022/05/16 02:15:55;;;;;;;14.90;10.38;;;;;;;;;;5051324;28;20091;-75
2022/05/16 02:18:22;;;;;;;18.13;10.45;;;;;;;;;;5052413;28;20505;-75
2022/05/16 02:20:48;;;;;;;16.50;10.20;;;;;;;;;;5052183;28;20527;-75
2022/05/16 02:26:00;;;;;;;15.35;10.85;;;;;;;;;;5052174;28;20085;-75
2022/05/16 02:28:26;;;;;;;15.00;10.43;;;;;;;;;;5052467;28;20080;-75
2022/05/16 02:30:54;;;;;;;12.45;10.18;;;;;;;;;;5052490;28;20088;-75
2022/05/16 02:33:20;;;;;;;;;;;;;;;;;;5052717;28;20049;-74
2022/05/16 02:35:47;;;;;;;16.67;9.75;;;;;;;;;;5052374;28;19956;-75
2022/05/16 02:38:14;;;;;;;14.35;9.77;;;;;;;;;;5051983;28;20049;-75
2022/05/16 02:40:41;;;;;;;16.67;10.07;;;;;;;;;;5051834;28;20568;-75
2022/05/16 02:43:07;;;;;;;13.73;9.10;;;;;;;;;;5052120;28;20089;-75
2022/05/16 02:45:34;;;;;;;16.83;10.20;;;;;;;;;;5050722;28;20041;-75
2022/05/16 02:48:02;;;;;;;12.95;9.38;;;;;;;;;;5051741;28;20056;-75
2022/05/16 02:50:30;;;;;;;16.80;9.82;;;;;;;;;;5051609;28;20460;-75
2022/05/16 02:52:56;;;;;;;14.82;9.95;;;;;;;;;;5051738;28;20081;-75
2022/05/16 02:55:23;;;;;;;14.60;9.73;;;;;;;;;;5051842;28;20128;-75
2022/05/16 02:57:50;;;;;;;21.10;10.93;;;;;;;;;;5051755;28;20084;-75
2022/05/16 03:00:17;;;;;;;15.98;10.45;;;;;;;;;;5051546;28;20527;-75
2022/05/16 03:02:43;;;;;;;15.67;10.37;;;;;;;;;;5051795;28;20091;-75
2022/05/16 03:05:10;;;;;;;16.95;11.13;;;;;;;;;;5051727;28;20282;-75
2022/05/16 03:07:37;;;;;;;19.77;10.83;;;;;;;;;;5051857;28;20041;-75
2022/05/16 03:10:04;;;;;;;25.63;11.48;;;;;;;;;;5051881;28;20505;-75
2022/05/16 03:12:30;;;;;;;22.42;11.85;;;;;;;;;;5051584;28;20049;-75
2022/05/16 03:14:57;;;;;;;18.58;12.07;;;;;;;;;;5051933;28;20182;-75
2022/05/16 03:17:23;;;;;;;22.35;14.05;;;;;;;;;;5051521;28;20152;-75
2022/05/16 03:19:50;;;;;;;26.38;13.88;;;;;;;;;;5037618;28;20092;-75
2022/05/16 03:22:17;;;;;;;21.13;14.00;;;;;;;;;;5051527;28;20516;-75
2022/05/16 03:24:43;;;;;;;23.53;16.13;;;;;;;;;;5050349;28;20044;-75
2022/05/16 03:27:10;;;;;;;28.15;15.50;;;;;;;;;;5051856;28;20504;-75
2022/05/16 03:29:37;;;;;;;26.50;15.77;;;;;;;;;;5051637;28;20045;-75
2022/05/16 03:32:04;;;;;;;25.60;14.05;;;;;;;;;;5051457;28;20155;-75
2022/05/16 03:34:30;;;;;;;24.52;14.35;;;;;;;;;;5051522;28;20053;-75
2022/05/16 03:36:57;;;;;;;21.17;15.75;;;;;;;;;;5051575;28;20134;-75
2022/05/16 03:42:08;;;;;;;22.23;15.80;;;;;;;;;;5051492;28;20045;-74
2022/05/16 03:44:35;;;;;;;30.83;16.17;;;;;;;;;;5051494;28;20044;-75
2022/05/16 03:47:02;;;;;;;30.02;15.93;;;;;;;;;;5051143;28;20080;-75
2022/05/16 03:49:30;;;;;;;24.92;15.98;;;;;;;;;;5051809;28;20174;-75
2022/05/16 03:51:57;;;;;;;;;;;;;;;;;;5051451;28;20068;-75
2022/05/16 03:54:23;;;;;;;26.15;17.23;;;;;;;;;;5050096;28;20015;-75
2022/05/16 03:56:50;;;;;;;26.90;17.58;;;;;;;;;;5049796;28;20076;-75
2022/05/16 03:59:16;;;;;;;26.40;17.05;;;;;;;;;;5051341;28;20128;-75
2022/05/16 04:01:44;;;;;;;33.50;17.30;;;;;;;;;;5051177;28;20504;-75
2022/05/16 04:04:11;;;;;;;28.02;16.50;;;;;;;;;;5054858;28;20060;-75
2022/05/16 04:06:37;;;;;;;25.70;18.70;;;;;;;;;;5054940;28;20079;-75
2022/05/16 04:09:04;;;;;;;24.45;17.75;;;;;;;;;;5054921;28;20557;-75
2022/05/16 04:11:30;;;;;;;29.85;16.23;;;;;;;;;;5054932;28;20134;-75
2022/05/16 04:13:58;;;;;;;25.02;17.10;;;;;;;;;;5054718;28;20052;-75
2022/05/16 04:16:24;;;;;;;26.48;16.83;;;;;;;;;;5054820;28;20053;-74
2022/05/16 04:18:50;;;;;;;24.42;17.05;;;;;;;;;;5054893;28;20045;-74
2022/05/16 04:21:17;;;;;;;23.85;17.15;;;;;;;;;;5054602;28;20542;-75
2022/05/16 04:23:43;;;;;;;29.35;19.13;;;;;;;;;;5054601;28;20072;-74
2022/05/16 04:26:10;;;;;;;28.80;17.48;;;;;;;;;;5054403;28;20080;-74
2022/05/16 04:28:36;;;;;;;30.15;18.00;;;;;;;;;;5054250;28;20107;-75
2022/05/16 04:31:02;;;;;;;29.90;18.95;;;;;;;;;;5054654;28;20080;-74
2022/05/16 04:33:31;;;;;;;35.80;18.13;;;;;;;;;;5054787;28;20049;-75
2022/05/16 04:35:57;;;;;;;33.47;19.10;;;;;;;;;;5054289;28;20092;-75
2022/05/16 04:38:24;;;;;;;30.95;19.92;;;;;;;;;;5054366;28;20088;-74
2022/05/16 04:43:36;;;;;;;36.38;19.92;;;;;;;;;;5054456;28;20136;-75
2022/05/16 04:46:06;;;;;;;33.05;18.20;;;;;;;;;;5053101;28;20096;-75
2022/05/16 04:48:33;;;;;;;32.78;19.10;;;;;;;;;;5054224;28;20143;-75
2022/05/16 04:51:00;;;;;;;30.53;18.97;;;;;;;;;;5053833;28;20516;-74
2022/05/16 04:53:26;;;;;;;32.20;19.23;;;;;;;;;;5054012;28;20692;-75
2022/05/16 04:55:53;;;;;;;32.97;19.17;;;;;;;;;;5054119;28;20084;-74
2022/05/16 04:58:20;;;;;;;29.58;18.20;;;;;;;;;;5052667;28;20052;-74
2022/05/16 05:00:47;;;;;;;25.25;18.05;;;;;;;;;;5053917;28;20040;-74
2022/05/16 05:03:13;;;;;;;23.65;16.77;;;;;;;;;;5054085;28;20119;-75
2022/05/16 05:05:40;;;;;;;29.40;17.10;;;;;;;;;;5053694;28;20432;-75
2022/05/16 05:08:06;;;;;;;26.08;17.90;;;;;;;;;;5053562;28;20092;-75
2022/05/16 05:16:03;;;;;;;23.88;16.60;;;;;;;;;;5053115;28;20135;-74
2022/05/16 05:18:30;;;;;;;27.25;16.95;;;;;;;;;;5053711;28;20049;-74
2022/05/16 05:20:56;;;;;;;24.73;15.68;;;;;;;;;;5041458;28;20523;-75
2022/05/16 05:23:23;;;;;;;23.30;15.75;;;;;;;;;;5051807;28;20072;-75
2022/05/16 05:25:49;;;;;;;20.65;15.45;;;;;;;;;;5053541;28;20542;-74
2022/05/16 05:28:15;;;;;;;27.13;16.92;;;;;;;;;;5053532;28;20091;-75
2022/05/16 05:30:42;;;;;;;25.50;16.52;;;;;;;;;;5053269;28;20490;-75
2022/05/16 05:33:08;;;;;;;26.65;16.90;;;;;;;;;;5053411;28;20095;-75
2022/05/16 05:35:35;;;;;;;28.88;15.70;;;;;;;;;;5053142;28;20059;-75
2022/05/16 05:38:01;;;;;;;22.45;14.40;;;;;;;;;;5053330;28;20139;-75
2022/05/16 05:40:27;;;;;;;27.85;15.52;;;;;;;;;;5053122;28;20084;-75
2022/05/16 05:42:54;;;;;;;22.13;15.40;;;;;;;;;;5053338;28;20076;-76
2022/05/16 05:45:20;;;;;;;24.60;14.82;;;;;;;;;;5053238;28;20107;-76
2022/05/16 05:47:47;;;;;;;24.43;15.53;;;;;;;;;;5052102;28;20051;-75
2022/05/16 05:50:14;;;;;;;29.40;14.88;;;;;;;;;;5052847;28;20088;-75
2022/05/16 05:52:40;;;;;;;20.63;13.73;;;;;;;;;;5053121;28;20087;-76
2022/05/16 05:55:07;;;;;;;23.95;15.20;;;;;;;;;;5053004;28;20080;-75
2022/05/16 05:57:33;;;;;;;29.83;15.57;;;;;;;;;;5052909;28;20053;-75
2022/05/16 06:00:00;;;;;;;25.58;16.45;;;;;;;;;;5053027;28;20103;-75
2022/05/16 06:02:26;;;;;;;26.15;15.98;;;;;;;;;;5052765;28;20100;-73
2022/05/16 06:04:53;;;;;;;24.20;15.70;;;;;;;;;;5051697;28;20087;-75
2022/05/16 06:07:19;;;;;;;23.42;14.27;;;;;;;;;;5053158;28;20080;-75
2022/05/16 06:09:46;;;;;;;26.15;14.45;;;;;;;;;;5052473;28;20088;-75
2022/05/16 06:12:12;;;;;;;22.08;13.60;;;;;;;;;;5052218;28;20488;-75
2022/05/16 06:14:38;;;;;;;19.02;13.35;;;;;;;;;;5052414;28;20053;-75
2022/05/16 06:17:05;;;;;;;19.25;12.85;;;;;;;;;;5052761;28;20143;-72
2022/05/16 06:19:31;;;;;;;21.20;12.88;;;;;;;;;;5052148;28;20075;-74
2022/05/16 06:21:58;;;;;;;18.77;13.00;;;;;;;;;;5052207;28;20098;-75
2022/05/16 06:27:09;;;;;;;22.58;12.32;;;;;;;;;;5051679;28;20044;-75
2022/05/16 06:29:36;;;;;;;15.95;11.65;;;;;;;;;;5051743;28;20144;-75
2022/05/16 06:32:02;;;;;;;14.98;10.35;;;;;;;;;;5051512;28;20477;-75
2022/05/16 06:34:29;;;;;;;16.00;10.10;;;;;;;;;;5051054;28;20516;-75
2022/05/16 06:36:55;;;;;;;14.18;9.13;;;;;;;;;;5051360;28;20123;-75
2022/05/16 06:39:22;;;;;;;14.32;9.80;;;;;;;;;;5050361;28;20461;-74
2022/05/16 06:41:49;;;;;;;15.68;9.27;;;;;;;;;;5042636;28;20137;-75
2022/05/16 06:44:16;;;;;;;14.65;9.30;;;;;;;;;;5051341;28;20049;-75
2022/05/16 06:46:44;;;;;;;14.13;9.50;;;;;;;;;;5050552;28;20092;-75
2022/05/16 06:49:10;;;;;;;11.48;8.88;;;;;;;;;;5064230;28;20289;-75
2022/05/16 06:51:37;;;;;;;11.15;8.50;;;;;;;;;;5051757;28;20088;-75
2022/05/16 06:54:04;;;;;;;11.93;8.45;;;;;;;;;;5049626;28;20084;-75
2022/05/16 06:56:31;;;;;;;11.43;8.07;;;;;;;;;;5051648;28;20084;-75
2022/05/16 06:58:57;;;;;;;11.98;9.23;;;;;;;;;;5051150;28;20511;-75
2022/05/16 07:01:24;;;;;;;12.32;8.15;;;;;;;;;;5050133;28;20084;-73
2022/05/16 07:03:51;;;;;;;13.88;8.43;;;;;;;;;;5049485;28;20314;-74
2022/05/16 07:06:17;;;;;;;10.45;8.30;;;;;;;;;;5050327;28;20080;-73
2022/05/16 07:08:44;;;;;;;13.47;8.47;;;;;;;;;;5051625;28;20080;-72
2022/05/16 07:11:10;;;;;;;10.50;7.53;;;;;;;;;;5051523;28;20773;-75
2022/05/16 07:13:37;;;;;;;10.80;7.28;;;;;;;;;;5051675;28;20084;-73
2022/05/16 07:16:03;;;;;;;9.65;6.35;;;;;;;;;;5051945;28;20087;-76
2022/05/16 07:18:30;;;;;;;6.32;5.47;;;;;;;;;;5050990;28;20053;-75
2022/05/16 07:20:57;;;;;;;10.57;6.00;;;;;;;;;;5051304;28;20473;-74
2022/05/16 07:23:24;;;;;;;12.60;7.10;;;;;;;;;;5050473;28;20091;-75
2022/05/16 07:28:36;;;;;;;8.50;6.10;;;;;;;;;;5051344;28;20520;-73
2022/05/16 07:31:02;;;;;;;11.85;6.68;;;;;;;;;;5051493;28;20091;-72
2022/05/16 07:33:29;;;;;;;8.63;6.20;;;;;;;;;;5051539;28;20423;-72
2022/05/16 07:35:55;;;;;;;9.82;5.50;;;;;;;;;;5051300;28;20076;-72
2022/05/16 07:38:23;;;;;;;10.63;5.60;;;;;;;;;;5053351;28;20083;-71
2022/05/16 07:40:49;;;;;;;9.10;5.13;;;;;;;;;;5055345;28;20493;-72
2022/05/16 07:43:17;;;;;;;9.43;4.75;;;;;;;;;;5054929;28;20452;-74
2022/05/16 07:45:44;;;;;;;8.70;4.60;;;;;;;;;;5055371;28;20068;-74
2022/05/16 07:48:12;;;;;;;7.53;4.23;;;;;;;;;;5055327;28;20045;-75
2022/05/16 07:50:39;;;;;;;11.23;4.00;;;;;;;;;;5054894;28;20140;-74
2022/05/16 07:53:11;;;;;;;7.17;3.53;;;;;;;;;;5055393;28;20045;-75
2022/05/16 07:55:39;;;;;;;6.95;2.67;;;;;;;;;;5055287;28;20075;-74
2022/05/16 07:58:06;;;;;;;8.13;3.50;;;;;;;;;;5054147;28;20111;-73
2022/05/16 08:00:33;;;;;;;6.85;2.95;;;;;;;;;;5053439;28;20467;-64
2022/05/16 08:02:59;;;;;;;5.22;2.28;;;;;;;;;;5051367;28;20071;-64
2022/05/16 08:05:26;;;;;;;7.35;2.80;;;;;;;;;;5053418;28;20186;-64
2022/05/16 08:10:39;;;;;;;3.83;2.58;;;;;;;;;;5032330;28;20088;-64
2022/05/16 08:13:08;;;;;;;6.55;2.67;;;;;;;;;;5053581;28;20098;-64
2022/05/16 08:15:35;;;;;;;6.28;2.45;;;;;;;;;;5053470;28;20049;-64
2022/05/16 08:18:02;;;;;;;;;;;;;;;;;;5053852;28;20195;-64
2022/05/16 08:20:29;;;;;;;8.52;3.15;;;;;;;;;;5053508;28;20015;-64
2022/05/16 08:22:56;;;;;;;7.18;2.40;;;;;;;;;;5053309;28;20091;-64
2022/05/16 08:25:22;;;;;;;5.60;2.03;;;;;;;;;;5053575;28;20141;-64
2022/05/16 08:27:50;;;;;;;7.22;3.00;;;;;;;;;;5053521;28;20281;-64
2022/05/16 08:30:17;;;;;;;6.32;2.80;;;;;;;;;;5051951;28;20127;-64
2022/05/16 08:32:44;;;;;;;5.47;2.22;;;;;;;;;;5053522;28;20053;-63
2022/05/16 08:35:11;;;;;;;4.57;2.63;;;;;;;;;;5053345;28;20073;-64
2022/05/16 08:40:28;;;;;;;6.85;1.90;;;;;;;;;;5053627;28;20053;-64
2022/05/16 08:43:15;;;;;;;3.85;2.00;;;;;;;;;;5053502;28;20114;-64
2022/05/16 08:45:46;;;;;;;4.95;2.20;;;;;;;;;;5052993;28;20139;-64
2022/05/16 08:48:17;;;;;;;7.55;3.08;;;;;;;;;;5052914;28;20079;-64
2022/05/16 08:51:04;;;;;;;5.40;2.10;;;;;;;;;;5052648;28;20092;-64
2022/05/16 08:53:30;;;;;;;;;;;;;;;;;;5052738;28;20477;-65
2022/05/16 08:56:00;;;;;;;8.15;2.20;;;;;;;;;;5052615;28;19960;-63
2022/05/16 08:58:35;;;;;;;4.20;1.90;;;;;;;;;;5053056;28;20108;-63
2022/05/16 09:01:03;;;;;;;5.72;2.10;;;;;;;;;;5051059;28;20140;-64
2022/05/16 09:03:51;;;;;;;7.95;2.28;;;;;;;;;;5053055;28;20400;-64
2022/05/16 09:06:24;;;;;;;8.40;2.33;;;;;;;;;;5052355;28;20080;-66
2022/05/16 09:09:06;;;;;;;6.88;2.08;;;;;;;;;;5053056;28;20465;-66
2022/05/16 09:11:38;;;;;;;7.68;2.53;;;;;;;;;;5052724;28;20041;-66
2022/05/16 09:14:14;;;;;;;7.88;1.88;;;;;;;;;;5053015;28;20124;-66
2022/05/16 09:16:44;;;;;;;7.50;2.10;;;;;;;;;;5053042;28;20120;-66
2022/05/16 09:19:36;;;;;;;7.65;2.30;;;;;;;;;;5052111;28;20041;-64
2022/05/16 09:22:17;;;;;;;6.30;2.00;;;;;;;;;;5049345;28;20072;-64
2022/05/16 09:24:49;;;;;;;7.53;2.22;;;;;;;;;;5052003;28;20540;-64
2022/05/16 09:30:18;;;;;;;8.73;2.53;;;;;;;;;;5052346;28;20532;-64
2022/05/16 09:32:49;;;;;;;6.68;2.17;;;;;;;;;;5052163;28;20140;-64
2022/05/16 09:35:39;;;;;;;6.63;2.05;;;;;;;;;;5052519;28;20076;-64
2022/05/16 09:38:05;;;;;;;7.95;2.30;;;;;;;;;;5037594;28;20136;-64
2022/05/16 09:40:37;;;;;;;7.65;2.22;;;;;;;;;;5052050;28;20049;-64
2022/05/16 09:43:23;;;;;;;7.30;1.90;;;;;;;;;;5051312;28;20473;-64
2022/05/16 09:45:53;;;;;;;6.07;1.52;;;;;;;;;;5051915;28;20037;-64
2022/05/16 09:48:21;;;;;;;7.03;2.13;;;;;;;;;;5051774;28;20087;-64
2022/05/16 09:50:59;;;;;;;4.38;1.88;;;;;;;;;;5051746;28;20087;-63
2022/05/16 09:53:34;;;;;;;7.55;1.95;;;;;;;;;;5051289;28;20437;-63
2022/05/16 09:56:05;;;;;;;6.32;1.70;;;;;;;;;;5051518;28;20469;-64
2022/05/16 09:58:49;;;;;;;7.22;1.90;;;;;;;;;;5051493;28;20559;-64
2022/05/16 10:01:35;;;;;;;5.65;1.60;;;;;;;;;;5049008;28;20095;-64
2022/05/16 10:04:16;;;;;;;7.75;2.22;;;;;;;;;;5051174;28;20152;-64
2022/05/16 10:06:44;;;;;;;6.78;1.65;;;;;;;;;;5051337;28;20126;-65
2022/05/16 10:09:14;;;;;;;6.75;1.88;;;;;;;;;;5051226;28;20045;-64
2022/05/16 10:11:42;;;;;;;6.40;2.30;;;;;;;;;;5051820;28;20448;-64
2022/05/16 10:14:09;;;;;;;6.50;1.80;;;;;;;;;;5051422;28;20044;-64
2022/05/16 10:16:37;;;;;;;7.35;1.60;;;;;;;;;;5051327;28;20087;-64
2022/05/16 10:19:05;;;;;;;4.68;1.45;;;;;;;;;;5051597;28;20072;-64
2022/05/16 10:21:33;;;;;;;6.35;1.65;;;;;;;;;;5051463;28;20072;-64
2022/05/16 10:23:59;;;;;;;7.78;1.90;;;;;;;;;;5051404;28;20127;-64
2022/05/16 10:26:28;;;;;;;7.35;1.90;;;;;;;;;;5051459;28;20440;-64
2022/05/16 10:28:57;;;;;;;6.53;1.70;;;;;;;;;;5050988;28;20148;-64
2022/05/16 10:34:18;;;;;;;7.07;1.80;;;;;;;;;;5051177;28;20040;-64
2022/05/16 10:36:51;;;;;;;7.45;2.25;;;;;;;;;;5051164;28;20132;-64
2022/05/16 10:39:29;;;;;;;7.38;2.22;;;;;;;;;;5050973;28;20057;-64
2022/05/16 10:41:58;;;;;;;5.90;1.95;;;;;;;;;;5051040;28;20416;-64
2022/05/16 10:44:29;;;;;;;8.57;2.00;;;;;;;;;;5050775;28;20132;-64
2022/05/16 10:47:16;;;;;;;10.63;2.75;;;;;;;;;;5050837;28;20596;-64
2022/05/16 10:49:48;;;;;;;8.05;2.17;;;;;;;;;;5049476;28;20041;-65
2022/05/16 10:52:23;;;;;;;6.07;2.20;;;;;;;;;;5050557;28;20084;-64
2022/05/16 10:54:49;;;;;;;9.25;2.72;;;;;;;;;;5051008;28;20110;-64
2022/05/16 10:57:18;;;;;;;6.97;2.25;;;;;;;;;;5051133;28;20469;-64
2022/05/16 10:59:45;;;;;;;8.93;2.50;;;;;;;;;;5050820;28;20137;-64
2022/05/16 11:02:30;;;;;;;8.55;3.05;;;;;;;;;;5048682;28;20103;-64
2022/05/16 11:04:57;;;;;;;8.73;2.95;;;;;;;;;;5050602;28;20041;-64
2022/05/16 11:07:28;;;;;;;8.95;2.65;;;;;;;;;;5050713;28;20127;-63
2022/05/16 11:10:00;;;;;;;6.90;2.58;;;;;;;;;;5050761;28;20049;-63
2022/05/16 11:12:39;;;;;;;6.03;2.85;;;;;;;;;;5050401;28;20053;-63
2022/05/16 11:15:24;;;;;;;10.85;3.50;;;;;;;;;;5050631;28;20080;-63
2022/05/16 11:17:55;;;;;;;7.40;2.70;;;;;;;;;;5050584;28;20144;-63
2022/05/16 11:20:27;;;;;;;6.15;2.63;;;;;;;;;;5050336;28;20053;-63
2022/05/16 11:22:56;;;;;;;8.48;2.97;;;;;;;;;;5050062;28;20123;-63
2022/05/16 11:25:41;;;;;;;6.07;2.38;;;;;;;;;;5050072;28;20131;-63
2022/05/16 11:28:16;;;;;;;6.90;2.85;;;;;;;;;;5049578;28;20065;-63
2022/05/16 11:31:02;;;;;;;10.60;6.40;;;;;;;;;;5050042;28;20076;-63
2022/05/16 11:33:47;;;;;;;7.75;3.50;;;;;;;;;;5050601;28;20064;-63
2022/05/16 11:36:49;;;;;;;5.43;2.15;;;;;;;;;;5049825;28;20079;-63
2022/05/16 11:39:32;;;;;;;4.93;2.40;;;;;;;;;;5046929;28;20076;-63
2022/05/16 11:42:01;;;;;;;5.32;1.90;;;;;;;;;;5047354;28;20076;-63
2022/05/16 11:44:49;;;;;;;5.07;1.55;;;;;;;;;;5050169;28;20083;-63
2022/05/16 11:47:31;;;;;;;4.00;1.20;;;;;;;;;;5050157;28;20080;-64
2022/05/16 11:50:34;;;;;;;5.97;1.35;;;;;;;;;;5049816;28;20059;-63
2022/05/16 11:53:02;;;;;;;4.78;1.75;;;;;;;;;;5050399;28;20057;-63
2022/05/16 12:01:04;;;;;;;4.93;1.67;;;;;;;;;;5048220;28;20073;-63
2022/05/16 12:03:41;;;;;;;5.07;1.45;;;;;;;;;;5050156;28;20045;-63
2022/05/16 12:06:07;;;;;;;;;;;;;;;;;;5050692;28;20132;-63
2022/05/16 12:08:39;;;;;;;5.53;1.60;;;;;;;;;;5049809;28;19925;-63
2022/05/16 12:11:06;;;;;;;5.70;1.55;;;;;;;;;;5049760;28;20924;-63
2022/05/16 12:13:34;;;;;;;5.60;1.55;;;;;;;;;;5050233;28;20472;-63
2022/05/16 12:16:13;;;;;;;4.07;1.20;;;;;;;;;;5050005;28;20141;-64
2022/05/16 12:18:48;;;;;;;4.00;1.40;;;;;;;;;;5050408;28;20049;-63
2022/05/16 12:21:22;;;;;;;3.72;1.15;;;;;;;;;;5049857;28;20080;-63
2022/05/16 12:23:48;;;;;;;5.30;1.27;;;;;;;;;;5050895;28;20080;-63
2022/05/16 12:26:38;;;;;;;7.93;1.70;;;;;;;;;;5053524;28;20539;-64
2022/05/16 12:29:08;;;;;;;3.10;1.33;;;;;;;;;;5041584;28;20056;-63
2022/05/16 12:31:48;;;;;;;8.38;1.60;;;;;;;;;;5051167;28;20095;-63
2022/05/16 12:34:30;;;;;;;4.53;1.02;;;;;;;;;;5053599;28;20098;-72
2022/05/16 12:36:57;;;;;;;4.78;1.30;;;;;;;;;;5040337;28;20128;-73
2022/05/16 12:39:30;;;;;;;5.15;1.73;;;;;;;;;;5051287;28;20057;-73
2022/05/16 12:42:16;;;;;;;3.15;0.90;;;;;;;;;;5052331;28;20045;-72
2022/05/16 12:44:47;;;;;;;5.47;1.30;;;;;;;;;;5051137;28;20052;-73
2022/05/16 12:47:13;;;;;;;3.53;1.25;;;;;;;;;;5052245;28;20049;-72
2022/05/16 12:49:57;;;;;;;5.63;1.30;;;;;;;;;;5052631;28;20520;-72
2022/05/16 12:52:42;;;;;;;4.00;1.23;;;;;;;;;;5053537;28;20049;-73
2022/05/16 12:55:08;;;;;;;3.35;1.20;;;;;;;;;;5053920;28;20098;-74
2022/05/16 12:57:59;;;;;;;5.30;1.23;;;;;;;;;;5054304;28;20083;-72
2022/05/16 13:00:32;;;;;;;4.72;0.90;;;;;;;;;;5054394;28;20099;-72
2022/05/16 13:03:01;;;;;;;3.72;0.70;;;;;;;;;;5053756;28;20084;-72
2022/05/16 13:05:31;;;;;;;2.63;0.98;;;;;;;;;;5053765;28;20047;-72
2022/05/16 13:08:04;;;;;;;4.15;0.95;;;;;;;;;;5053852;28;20045;-72
2022/05/16 13:10:30;;;;;;;2.30;0.80;;;;;;;;;;5052834;28;20088;-72
2022/05/16 13:12:57;;;;;;;2.58;0.95;;;;;;;;;;5053951;28;20084;-73
2022/05/16 13:15:31;;;;;;;3.88;1.08;;;;;;;;;;5053480;28;20130;-72
2022/05/16 13:18:00;;;;;;;4.13;0.88;;;;;;;;;;5053393;28;20500;-63
2022/05/16 13:20:34;;;;;;;4.47;1.23;;;;;;;;;;5053167;28;20096;-62
2022/05/16 13:23:01;;;;;;;4.60;0.98;;;;;;;;;;5053198;28;20084;-62
2022/05/16 13:25:28;;;;;;;3.60;1.40;;;;;;;;;;5051993;28;20453;-62
2022/05/16 13:30:40;;;;;;;5.15;1.08;;;;;;;;;;5053690;28;19963;-63
2022/05/16 13:33:23;;;;;;;3.80;1.40;;;;;;;;;;5053232;28;20091;-63
2022/05/16 13:35:50;;;;;;;2.85;1.17;;;;;;;;;;5052342;28;20128;-63
2022/05/16 13:38:17;;;;;;;5.32;1.50;;;;;;;;;;5052863;28;20045;-63
2022/05/16 13:40:44;;;;;;;1.88;1.00;;;;;;;;;;5052889;28;20103;-63
2022/05/16 13:43:11;;;;;;;;;;;;;;;;;;5053714;28;20163;-63
2022/05/16 13:45:37;;;;;;;3.83;1.35;;;;;;;;;;5053590;28;19924;-63
2022/05/16 13:48:05;;;;;;;3.45;1.17;;;;;;;;;;5053325;28;20132;-62
2022/05/16 13:50:32;;;;;;;3.95;1.50;;;;;;;;;;5052752;28;20107;-62
2022/05/16 13:52:58;;;;;;;4.95;1.75;;;;;;;;;;5053344;28;20056;-62
2022/05/16 13:55:25;;;;;;;3.67;1.20;;;;;;;;;;5052405;28;20049;-63
2022/05/16 13:57:51;;;;;;;3.22;1.10;;;;;;;;;;5052712;28;20096;-63
2022/05/16 14:00:36;;;;;;;3.65;1.38;;;;;;;;;;5052641;28;20052;-62
2022/05/16 14:03:09;;;;;;;3.58;1.40;;;;;;;;;;5052448;28;20047;-63
2022/05/16 14:05:42;;;;;;;8.10;2.17;;;;;;;;;;5052239;28;20128;-63
2022/05/16 14:08:18;;;;;;;3.72;1.40;;;;;;;;;;5052700;28;20473;-74
2022/05/16 14:10:45;;;;;;;4.65;1.52;;;;;;;;;;5052357;28;20044;-69
2022/05/16 14:13:14;;;;;;;4.70;2.00;;;;;;;;;;5052663;28;20085;-68
2022/05/16 14:15:45;;;;;;;8.07;2.50;;;;;;;;;;5052739;28;20094;-68
2022/05/16 14:18:12;;;;;;;7.07;2.17;;;;;;;;;;5052420;28;20056;-68
2022/05/16 14:20:41;;;;;;;7.30;2.50;;;;;;;;;;5052337;28;20132;-69
2022/05/16 14:23:34;;;;;;;7.85;2.10;;;;;;;;;;5052256;28;20347;-67
2022/05/16 14:26:09;;;;;;;7.88;2.92;;;;;;;;;;5050736;28;20077;-67
2022/05/16 14:28:42;;;;;;;8.15;2.58;;;;;;;;;;5050411;28;20080;-67
2022/05/16 14:31:26;;;;;;;9.73;2.63;;;;;;;;;;5051250;28;20122;-66
2022/05/16 14:34:00;;;;;;;9.15;3.30;;;;;;;;;;5051589;28;20447;-67
2022/05/16 14:36:40;;;;;;;9.88;2.67;;;;;;;;;;5051211;28;20110;-67
2022/05/16 14:39:12;;;;;;;9.30;2.90;;;;;;;;;;5050464;28;20126;-67
2022/05/16 14:41:48;;;;;;;8.20;2.97;;;;;;;;;;5050634;28;20084;-67
2022/05/16 14:44:19;;;;;;;5.57;2.17;;;;;;;;;;5050599;28;20149;-68
2022/05/16 14:46:55;;;;;;;10.98;2.80;;;;;;;;;;5050183;28;20041;-67
2022/05/16 14:49:25;;;;;;;7.55;2.30;;;;;;;;;;5050415;28;20044;-68
2022/05/16 14:51:51;;;;;;;7.40;2.37;;;;;;;;;;5050019;28;20092;-68
2022/05/16 14:54:22;;;;;;;8.27;1.97;;;;;;;;;;5048907;28;20314;-67
2022/05/16 14:56:49;;;;;;;10.27;2.13;;;;;;;;;;5050783;28;20175;-67
2022/05/16 14:59:16;;;;;;;9.07;2.22;;;;;;;;;;5050467;28;20174;-67
2022/05/16 15:04:27;;;;;;;9.75;2.72;;;;;;;;;;5050737;28;20406;-67
2022/05/16 15:06:59;;;;;;;11.60;2.97;;;;;;;;;;5050718;28;20064;-68
2022/05/16 15:09:26;;;;;;;11.43;2.20;;;;;;;;;;5050167;28;20048;-67
2022/05/16 15:11:57;;;;;;;10.50;2.92;;;;;;;;;;5050468;28;20067;-67
2022/05/16 15:14:25;;;;;;;9.93;2.28;;;;;;;;;;5050616;28;20057;-67
2022/05/16 15:16:51;;;;;;;11.35;2.45;;;;;;;;;;5050328;28;20568;-68
2022/05/16 15:19:19;;;;;;;9.13;2.97;;;;;;;;;;5050363;28;20080;-67
2022/05/16 15:21:47;;;;;;;10.38;2.67;;;;;;;;;;5050569;28;20053;-68
2022/05/16 15:24:13;;;;;;;;;;;;;;;;;;5050765;28;20151;-67
2022/05/16 15:26:57;;;;;;;10.75;2.58;;;;;;;;;;5050262;28;20299;-67
2022/05/16 15:29:24;;;;;;;10.30;2.50;;;;;;;;;;5050611;28;20088;-67
2022/05/16 15:31:50;;;;;;;9.30;2.50;;;;;;;;;;5050512;28;20049;-67
2022/05/16 15:34:17;;;;;;;10.60;2.17;;;;;;;;;;5050810;28;20049;-68